Harefield, United Kingdom
Current Conditions -  °F | °C
As of 5:50 PM on Thursday 27 Nov 2014 (Local Time) from EGWU Reporting Station
Broken Clouds Broken Clouds  
Wind Chill: 50°   Ceiling: 2200
Heat Index: 50°   Visibility: 6mi
Dew Point: 46°   Wind: 6mph
Humidity: 87%   Direction: 100°E
Pressure: 29.56"   Gusts: NA
Location:  51.6°N, 0.48°W
Report Text: EGWU 271750Z 10005KT 9999 SCT013 BKN022 BKN065 10/08 Q1001 GRN TEMPO FEW012 SCT020 WHT
Loading
Personal Weather Stations






























Interactive Weather Map New forecast layout! Learn more

10-Day Weather Forecast

Advertisements
Track Severe Weather on mobile